Time;durP1;ratioP1;P1;durP2;ratioP2;P2;SDS_P1;SDS_P2;PMS_P1;PMS_P2;Temp;Humidity;BMP_temperature;BMP_pressure;BME280_temperature;BME280_humidity;BME280_pressure;Samples;Min_cycle;Max_cycle;Signal;HPM_P1;HPM_P2
2022/05/25 00:01:42;;;;;;;1.17;0.80;;;;;;;14.77;74.93;97818.44;5076578;28;20211;-70
2022/05/25 00:04:09;;;;;;;1.17;0.70;;;;;;;14.74;74.09;97818.94;5075673;28;20208;-70
2022/05/25 00:06:36;;;;;;;1.43;0.63;;;;;;;14.75;74.88;97815.19;5075564;28;20567;-71
2022/05/25 00:09:03;;;;;;;1.40;0.80;;;;;;;14.73;73.92;97814.66;5075487;28;20703;-71
2022/05/25 00:11:29;;;;;;;2.40;0.70;;;;;;;14.84;71.51;97824.38;5075830;28;20200;-71
2022/05/25 00:13:56;;;;;;;3.70;0.80;;;;;;;14.86;73.06;97818.78;5075772;28;20205;-71
2022/05/25 00:16:23;;;;;;;0.87;0.70;;;;;;;14.84;73.03;97824.38;5075637;28;20357;-70
2022/05/25 00:21:32;;;;;;;0.60;0.60;;;;;;;14.83;71.43;97820.09;5075536;28;20198;-71
2022/05/25 00:23:59;;;;;;;2.47;0.90;;;;;;;14.93;68.68;97814.06;5076133;28;20211;-70
2022/05/25 00:26:25;;;;;;;0.77;0.77;;;;;;;14.90;68.46;97819.91;5075199;28;20200;-70
2022/05/25 00:28:52;;;;;;;0.93;0.80;;;;;;;15.02;68.23;97823.25;5074608;28;20591;-70
2022/05/25 00:31:18;;;;;;;1.07;0.70;;;;;;;14.95;72.02;97817.28;5075499;28;20208;-70
2022/05/25 00:33:44;;;;;;;1.20;0.67;;;;;;;14.92;69.75;97817.81;5075435;28;20208;-71
2022/05/25 00:36:12;;;;;;;4.30;0.80;;;;;;;14.90;71.30;97822.59;5075286;28;20220;-71
2022/05/25 00:38:38;;;;;;;1.80;0.80;;;;;;;14.91;70.98;97819.66;5075784;28;20226;-70
2022/05/25 00:41:04;;;;;;;2.53;1.00;;;;;;;14.87;71.13;97821.22;5074986;28;20205;-70
2022/05/25 00:43:31;;;;;;;1.30;0.87;;;;;;;14.88;72.48;97824.72;5074946;28;20690;-70
2022/05/25 00:46:07;;;;;;;1.53;0.70;;;;;;;14.92;70.70;97823.94;5075188;28;20200;-70
2022/05/25 00:48:36;;;;;;;1.20;0.80;;;;;;;14.92;69.90;97823.94;5057671;28;20236;-70
2022/05/25 00:51:15;;;;;;;1.37;0.80;;;;;;;14.85;71.43;97825.22;5075096;28;20207;-70
2022/05/25 00:53:49;;;;;;;1.33;0.80;;;;;;;14.84;70.81;97824.38;5075021;28;20188;-70
2022/05/25 00:56:19;;;;;;;0.73;0.73;;;;;;;14.88;69.88;97835.44;5074914;28;20213;-70
2022/05/25 00:58:54;;;;;;;1.47;0.70;;;;;;;14.88;69.07;97830.84;5074921;28;20582;-70
2022/05/25 01:01:21;;;;;;;1.03;0.70;;;;;;;14.87;69.92;97823.91;5074941;28;20192;-70
2022/05/25 01:03:48;;;;;;;1.07;0.70;;;;;;;14.81;71.46;97830.25;5074804;28;20211;-70
2022/05/25 01:06:29;;;;;;;1.43;0.80;;;;;;;14.80;71.94;97827.84;5074689;28;20200;-70
2022/05/25 01:08:58;;;;;;;1.50;0.70;;;;;;;14.74;72.70;97840.34;5074657;28;20224;-70
2022/05/25 01:11:37;;;;;;;1.13;0.70;;;;;;;14.78;72.75;97836.09;5074672;28;20204;-70
2022/05/25 01:14:46;;;;;;;1.60;0.80;;;;;;;14.71;72.77;97843.53;5074658;28;20197;-70
2022/05/25 01:17:38;;;;;;;1.40;0.70;;;;;;;14.73;72.59;97841.41;5056470;28;20675;-71
2022/05/25 01:20:09;;;;;;;1.70;0.83;;;;;;;14.78;72.55;97843.31;5038484;28;20208;-70
2022/05/25 01:22:41;;;;;;;1.00;0.80;;;;;;;14.71;72.15;97851.56;5074475;28;20185;-70
2022/05/25 01:25:42;;;;;;;2.43;0.80;;;;;;;14.63;73.91;97849.31;5074430;28;20208;-70
2022/05/25 01:28:20;;;;;;;2.23;0.70;;;;;;;14.64;74.31;97844.75;5074335;28;20227;-70
2022/05/25 01:30:52;;;;;;;1.13;1.00;;;;;;;14.60;74.50;97851.69;5074313;28;20185;-70
2022/05/25 01:33:41;;;;;;;3.43;1.00;;;;;;;14.56;74.49;97859.38;5074013;28;20189;-70
2022/05/25 01:36:21;;;;;;;0.90;0.70;;;;;;;14.63;73.97;97851.19;5063241;28;20209;-71
2022/05/25 01:38:55;;;;;;;0.73;0.57;;;;;;;14.57;74.73;97852.97;5056142;28;20220;-71
2022/05/25 01:41:32;;;;;;;0.70;0.60;;;;;;;14.68;71.87;97852.06;5074183;28;20559;-70
2022/05/25 01:44:04;;;;;;;0.90;0.90;;;;;;;14.64;69.27;97850.94;5056397;28;20219;-71
2022/05/25 01:46:40;;;;;;;1.33;1.00;;;;;;;14.64;71.89;97850.13;5074038;28;20185;-71
2022/05/25 01:49:11;;;;;;;1.07;0.90;;;;;;;14.54;73.28;97855.34;5055708;28;20235;-70
2022/05/25 01:52:00;;;;;;;1.50;0.80;;;;;;;14.56;72.04;97858.59;5073691;28;20189;-70
2022/05/25 01:54:32;;;;;;;0.70;0.70;;;;;;;14.51;69.79;97853.97;5056251;28;20283;-70
2022/05/25 01:57:04;;;;;;;0.97;0.70;;;;;;;14.44;69.25;97864.06;5073819;28;20213;-70
2022/05/25 01:59:30;;;;;;;0.80;0.70;;;;;;;14.50;70.32;97871.09;5056272;28;20204;-70
2022/05/25 02:04:42;;;;;;;1.13;0.63;;;;;;;14.36;72.75;97864.47;5072536;28;20180;-70
2022/05/25 02:07:20;;;;;;;2.23;0.70;;;;;;;14.36;72.32;97864.47;5073401;28;20189;-70
2022/05/25 02:10:05;;;;;;;1.87;0.70;;;;;;;14.34;73.03;97871.13;5073758;28;20216;-70
2022/05/25 02:12:52;;;;;;;3.80;0.90;;;;;;;14.33;71.72;97864.97;5073412;28;20205;-71
2022/05/25 02:15:52;;;;;;;0.70;0.70;;;;;;;14.37;71.31;97868.78;5073656;28;20195;-70
2022/05/25 02:18:30;;;;;;;0.90;0.77;;;;;;;14.42;71.54;97863.47;5055743;28;20232;-70
2022/05/25 02:21:17;;;;;;;1.63;0.90;;;;;;;14.30;73.02;97860.09;5073604;28;20211;-70
2022/05/25 02:23:53;;;;;;;1.20;0.77;;;;;;;14.28;73.72;97859.56;5073252;28;20291;-70
2022/05/25 02:26:27;;;;;;;1.40;0.90;;;;;;;14.24;73.68;97871.78;5073268;28;20673;-70
2022/05/25 02:29:00;;;;;;;1.80;0.90;;;;;;;14.16;73.89;97866.84;5055914;28;20321;-71
2022/05/25 02:31:31;;;;;;;1.43;0.70;;;;;;;14.18;73.47;97861.25;5073496;28;20192;-70
2022/05/25 02:34:02;;;;;;;1.00;0.60;;;;;;;14.11;74.10;97856.06;5073472;28;20189;-70
2022/05/25 02:36:33;;;;;;;1.00;0.87;;;;;;;14.11;73.73;97864.09;5055819;28;20197;-70
2022/05/25 02:38:59;;;;;;;0.80;0.80;;;;;;;14.12;72.69;97860.38;5073345;28;20235;-70
2022/05/25 02:41:32;;;;;;;1.10;0.70;;;;;;;14.17;71.87;97864.97;5055518;28;20205;-70
2022/05/25 02:44:00;;;;;;;2.80;0.90;;;;;;;14.05;73.03;97865.09;5072981;28;20216;-70
2022/05/25 02:46:27;;;;;;;0.80;0.70;;;;;;;14.11;72.63;97869.44;5073315;28;20211;-70
2022/05/25 02:48:53;;;;;;;0.67;0.63;;;;;;;14.11;71.13;97869.44;5072942;28;20228;-70
2022/05/25 02:51:20;;;;;;;1.07;0.70;;;;;;;14.16;71.42;97874.06;5075618;28;20211;-70
2022/05/25 02:53:46;;;;;;;4.43;1.07;;;;;;;14.04;71.96;97882.19;5077354;28;20215;-70
2022/05/25 02:56:13;;;;;;;1.17;0.73;;;;;;;14.06;71.93;97881.94;5077258;28;20205;-70
2022/05/25 02:58:39;;;;;;;0.60;0.60;;;;;;;14.09;70.73;97873.41;5077099;28;20225;-70
2022/05/25 03:01:06;;;;;;;1.10;0.77;;;;;;;14.12;71.84;97884.44;5076753;28;20204;-70
2022/05/25 03:03:35;;;;;;;1.20;0.80;;;;;;;14.14;70.49;97886.84;5076996;28;20211;-70
2022/05/25 03:06:02;;;;;;;1.50;0.80;;;;;;;14.17;69.60;97897.06;5076986;28;20200;-70
2022/05/25 03:08:28;;;;;;;1.90;0.80;;;;;;;14.06;70.28;97896.09;5076991;28;20224;-70
2022/05/25 03:10:55;;;;;;;1.03;0.70;;;;;;;14.03;70.54;97901.13;5077530;28;20212;-70
2022/05/25 03:13:21;;;;;;;1.27;0.63;;;;;;;14.05;71.04;97899.00;5076572;28;20211;-71
2022/05/25 03:15:47;;;;;;;0.60;0.60;;;;;;;13.99;71.41;97900.81;5076428;28;20204;-70
2022/05/25 03:18:14;;;;;;;0.73;0.60;;;;;;;14.00;71.49;97891.75;5076672;28;20683;-70
2022/05/25 03:20:40;;;;;;;1.03;0.70;;;;;;;13.94;71.56;97895.41;5076731;28;20200;-70
2022/05/25 03:23:07;;;;;;;0.90;0.80;;;;;;;13.89;70.97;97895.28;5076747;28;20214;-70
2022/05/25 03:25:33;;;;;;;1.07;0.63;;;;;;;13.99;68.57;97895.47;5076388;28;20212;-70
2022/05/25 03:28:02;;;;;;;0.70;0.70;;;;;;;14.00;70.13;97893.59;5076521;28;20224;-70
2022/05/25 03:30:28;;;;;;;2.83;0.80;;;;;;;13.95;71.09;97893.50;5076255;28;20622;-70
2022/05/25 03:32:55;;;;;;;0.63;0.63;;;;;;;14.02;68.44;97899.50;5076257;28;20208;-70
2022/05/25 03:35:21;;;;;;;0.53;0.53;;;;;;;13.99;70.06;97910.69;5075908;28;20299;-69
2022/05/25 03:37:48;;;;;;;1.90;0.90;;;;;;;13.95;70.79;97913.03;5076294;28;20633;-69
2022/05/25 03:40:15;;;;;;;1.03;0.77;;;;;;;13.89;71.01;97916.66;5076171;28;20238;-69
2022/05/25 03:42:43;;;;;;;0.70;0.60;;;;;;;13.82;70.51;97918.72;5076177;28;20204;-69
2022/05/25 03:45:11;;;;;;;1.63;0.70;;;;;;;13.82;71.19;97915.22;5057641;28;20675;-69
2022/05/25 03:47:37;;;;;;;1.70;0.60;;;;;;;13.87;72.25;97918.78;5075430;28;20707;-70
2022/05/25 03:50:04;;;;;;;1.70;0.67;;;;;;;13.84;71.67;97913.91;5076145;28;20192;-69
2022/05/25 03:52:30;;;;;;;2.20;0.70;;;;;;;13.85;70.27;97922.75;5075756;28;20208;-69
2022/05/25 03:54:57;;;;;;;0.93;0.73;;;;;;;13.85;70.07;97934.25;5076072;28;20201;-69
2022/05/25 03:57:23;;;;;;;1.10;0.90;;;;;;;13.72;71.37;97947.94;5075799;28;20232;-69
2022/05/25 03:59:50;;;;;;;1.73;0.80;;;;;;;13.71;71.27;97943.63;5075878;28;20211;-69
2022/05/25 04:02:16;;;;;;;0.93;0.80;;;;;;;13.65;70.45;97949.94;5075722;28;20297;-69
2022/05/25 04:04:43;;;;;;;1.53;0.60;;;;;;;13.76;69.81;97949.06;5075431;28;20215;-69
2022/05/25 04:07:09;;;;;;;0.50;0.50;;;;;;;13.73;71.19;97944.19;5075696;28;20200;-69
2022/05/25 04:09:36;;;;;;;1.00;0.60;;;;;;;13.68;70.61;97946.78;5075761;28;20216;-69
2022/05/25 04:12:03;;;;;;;2.17;0.77;;;;;;;13.71;71.95;97943.63;5075417;28;20254;-69
2022/05/25 04:14:30;;;;;;;1.97;0.70;;;;;;;13.72;69.80;97950.59;5075592;28;20216;-69
2022/05/25 04:16:56;;;;;;;0.80;0.80;;;;;;;13.71;70.34;97956.97;5075560;28;20200;-69
2022/05/25 04:19:22;;;;;;;2.57;0.97;;;;;;;13.67;71.23;97963.88;5075450;28;20224;-69
2022/05/25 04:21:49;;;;;;;0.77;0.70;;;;;;;13.70;69.85;97968.72;5075500;28;20208;-69
2022/05/25 04:24:16;;;;;;;1.53;0.90;;;;;;;13.66;70.11;97974.81;5075004;28;20204;-69
2022/05/25 04:26:43;;;;;;;1.17;0.80;;;;;;;13.61;70.11;97970.16;5075110;28;20641;-69
2022/05/25 04:29:09;;;;;;;0.80;0.60;;;;;;;13.61;70.90;97967.50;5075343;28;20223;-69
2022/05/25 04:31:35;;;;;;;1.80;0.73;;;;;;;13.65;70.64;97976.66;5075276;28;20210;-69
2022/05/25 04:34:02;;;;;;;0.77;0.60;;;;;;;13.63;70.86;97975.25;5074908;28;20216;-69
2022/05/25 04:36:28;;;;;;;0.57;0.57;;;;;;;13.63;69.58;97986.78;5075146;28;20211;-69
2022/05/25 04:38:54;;;;;;;0.97;0.70;;;;;;;13.64;71.41;97991.06;5074822;28;20244;-69
2022/05/25 04:41:21;;;;;;;1.00;0.70;;;;;;;13.66;70.08;97990.81;5074482;28;20211;-69
2022/05/25 04:43:47;;;;;;;2.10;0.90;;;;;;;13.78;66.64;97995.06;5074871;28;20204;-69
2022/05/25 04:46:14;;;;;;;0.93;0.73;;;;;;;13.83;67.75;97995.13;5074182;28;20208;-69
2022/05/25 04:48:40;;;;;;;0.90;0.70;;;;;;;13.85;69.59;97995.72;5073643;28;20287;-69
2022/05/25 04:51:07;;;;;;;1.93;0.80;;;;;;;13.83;70.42;98003.16;5074423;28;20210;-69
2022/05/25 04:53:33;;;;;;;0.77;0.70;;;;;;;13.84;69.57;98012.00;5074614;28;20249;-69
2022/05/25 04:58:47;;;;;;;1.00;0.90;;;;;;;13.89;69.77;98018.22;5074328;28;20219;-69
2022/05/25 05:01:14;;;;;;;0.80;0.70;;;;;;;13.86;70.74;98024.06;5074399;28;20205;-69
2022/05/25 05:03:41;;;;;;;2.47;0.83;;;;;;;13.91;69.89;98021.47;5074132;28;20212;-69
2022/05/25 05:06:10;;;;;;;1.67;0.70;;;;;;;13.85;71.90;98026.97;5074296;28;20270;-69
2022/05/25 05:08:37;;;;;;;0.70;0.70;;;;;;;13.80;71.12;98035.69;5073917;28;20228;-69
2022/05/25 05:11:10;;;;;;;0.73;0.73;;;;;;;13.76;71.17;98034.56;5073890;28;20214;-69
2022/05/25 05:13:37;;;;;;;2.13;0.90;;;;;;;13.84;69.92;98036.84;5073707;28;20224;-69
2022/05/25 05:16:08;;;;;;;0.70;0.70;;;;;;;13.77;70.61;98040.72;5073969;28;20238;-69
2022/05/25 05:18:34;;;;;;;1.67;0.80;;;;;;;13.80;69.23;98043.72;5073631;28;20228;-69
2022/05/25 05:21:01;;;;;;;2.43;1.00;;;;;;;13.77;69.70;98049.56;5073626;28;20214;-69
2022/05/25 05:23:28;;;;;;;1.33;1.00;;;;;;;13.79;70.58;98042.09;5073782;28;20208;-70
2022/05/25 05:25:54;;;;;;;2.83;0.80;;;;;;;13.77;70.80;98048.72;5074010;28;20213;-69
2022/05/25 05:28:24;;;;;;;2.00;0.90;;;;;;;14.00;71.29;98057.47;5073247;28;20235;-69
2022/05/25 05:30:55;;;;;;;1.33;0.87;;;;;;;14.11;70.79;98056.56;5073902;28;20192;-69
2022/05/25 05:33:23;;;;;;;0.90;0.90;;;;;;;14.33;70.40;98056.72;5073262;28;20195;-69
2022/05/25 05:35:55;;;;;;;0.93;0.90;;;;;;;14.28;66.23;98049.41;5073128;28;20219;-69
2022/05/25 05:38:23;;;;;;;1.83;1.10;;;;;;;14.43;65.57;98051.53;5073271;28;20228;-69
2022/05/25 05:40:49;;;;;;;2.20;0.90;;;;;;;14.55;65.64;98060.28;5073275;28;20204;-69
2022/05/25 05:43:16;;;;;;;1.83;1.10;;;;;;;14.39;64.96;98053.88;5073174;28;20220;-70
2022/05/25 05:45:45;;;;;;;1.80;1.03;;;;;;;14.55;66.75;98061.09;5073196;28;20670;-69
2022/05/25 05:48:21;;;;;;;1.90;0.93;;;;;;;14.82;66.09;98066.56;5073246;28;20229;-69
2022/05/25 05:50:50;;;;;;;2.50;1.00;;;;;;;14.93;65.26;98063.81;5073875;28;20211;-69
2022/05/25 05:53:18;;;;;;;1.47;0.90;;;;;;;14.96;62.65;98068.66;5073527;28;20219;-69
2022/05/25 05:55:46;;;;;;;2.00;0.83;;;;;;;15.05;63.09;98072.56;5055966;28;20200;-70
2022/05/25 05:58:13;;;;;;;2.30;0.83;;;;;;;15.05;61.82;98074.41;5073020;28;20228;-69
2022/05/25 06:00:40;;;;;;;3.20;0.93;;;;;;;14.87;60.88;98078.19;5073312;28;20295;-67
2022/05/25 06:03:07;;;;;;;0.83;0.80;;;;;;;15.02;62.31;98075.72;5073213;28;20208;-69
2022/05/25 06:05:33;;;;;;;2.30;1.10;;;;;;;14.98;62.82;98076.47;5073075;28;20201;-69
2022/05/25 06:08:11;;;;;;;3.17;1.07;;;;;;;14.76;62.55;98083.63;5072672;28;20650;-69
2022/05/25 06:10:39;;;;;;;2.80;1.00;;;;;;;14.72;65.60;98082.50;5072871;28;20208;-69
2022/05/25 06:13:07;;;;;;;1.73;0.90;;;;;;;14.67;65.29;98085.09;5073107;28;20232;-68
2022/05/25 06:21:02;;;;;;;4.47;1.30;;;;;;;14.76;62.45;98092.47;5072456;28;20179;-69
2022/05/25 06:23:28;;;;;;;3.40;0.90;;;;;;;14.79;63.85;98102.66;5073011;28;20211;-68
2022/05/25 06:25:55;;;;;;;4.60;0.90;;;;;;;15.03;64.32;98096.09;5072121;28;20204;-69
2022/05/25 06:28:21;;;;;;;3.77;1.17;;;;;;;14.98;61.74;98109.41;5073041;28;20224;-68
2022/05/25 06:30:48;;;;;;;1.27;1.00;;;;;;;15.15;63.98;98112.84;5072897;28;20220;-69
2022/05/25 06:33:14;;;;;;;1.93;0.87;;;;;;;15.27;63.68;98115.44;5070047;28;20205;-71
2022/05/25 06:35:41;;;;;;;1.50;0.90;;;;;;;15.31;63.21;98112.03;5052884;28;20208;-69
2022/05/25 06:38:07;;;;;;;1.93;0.97;;;;;;;15.40;62.60;98115.94;5052784;28;20240;-69
2022/05/25 06:40:34;;;;;;;1.70;0.90;;;;;;;15.34;62.09;98108.84;5053386;28;20283;-69
2022/05/25 06:43:00;;;;;;;2.57;0.97;;;;;;;15.44;63.57;98114.38;5052724;28;20209;-69
2022/05/25 06:45:27;;;;;;;2.87;1.10;;;;;;;15.52;61.52;98127.31;5052322;28;20224;-69
2022/05/25 06:47:53;;;;;;;5.23;0.90;;;;;;;15.62;63.72;98130.16;5052367;28;20233;-68
2022/05/25 06:50:19;;;;;;;1.97;1.00;;;;;;;15.69;62.63;98122.72;5053387;28;20216;-68
2022/05/25 06:52:46;;;;;;;2.50;1.33;;;;;;;15.48;60.02;98128.91;5052616;28;20206;-68
2022/05/25 06:55:12;;;;;;;1.77;0.80;;;;;;;15.62;60.81;98138.19;5052122;28;20209;-68
2022/05/25 06:57:40;;;;;;;3.57;0.90;;;;;;;15.53;62.31;98134.31;5052370;28;20225;-69
2022/05/25 07:00:07;;;;;;;1.57;0.90;;;;;;;15.47;60.54;98135.28;5052701;28;20209;-69
2022/05/25 07:02:34;;;;;;;2.50;1.00;;;;;;;15.61;60.40;98146.47;5052301;28;20211;-69
2022/05/25 07:05:00;;;;;;;1.47;0.80;;;;;;;15.70;60.12;98143.09;5053019;28;20652;-68
2022/05/25 07:07:27;;;;;;;1.47;0.83;;;;;;;15.85;58.92;98142.47;5052088;28;20236;-69
2022/05/25 07:09:53;;;;;;;4.93;1.10;;;;;;;15.94;58.74;98144.47;5052597;28;20630;-68
2022/05/25 07:12:19;;;;;;;1.63;1.00;;;;;;;16.26;56.57;98145.38;5052453;28;20202;-69
2022/05/25 07:14:46;;;;;;;2.27;1.10;;;;;;;16.40;58.53;98152.00;5052436;28;20232;-68
2022/05/25 07:17:12;;;;;;;1.83;0.80;;;;;;;16.14;55.05;98143.88;5052509;28;20205;-68
2022/05/25 07:19:39;;;;;;;3.07;1.00;;;;;;;16.28;55.95;98156.66;5053089;28;20340;-67
2022/05/25 07:22:10;;;;;;;3.27;1.20;;;;;;;16.48;56.77;98151.53;5052328;28;20562;-68
2022/05/25 07:24:37;;;;;;;2.57;1.00;;;;;;;16.62;57.55;98149.22;5052735;28;20213;-69
2022/05/25 07:27:04;;;;;;;6.30;1.07;;;;;;;16.72;56.44;98144.78;5052643;28;20244;-68
2022/05/25 07:29:30;;;;;;;2.27;0.80;;;;;;;16.94;55.49;98163.47;5053431;28;20201;-69
2022/05/25 07:32:04;;;;;;;3.67;1.00;;;;;;;16.62;53.26;98151.91;5052439;28;20211;-69
2022/05/25 07:34:39;;;;;;;3.03;0.90;;;;;;;16.65;54.74;98156.78;5034446;28;20637;-70
2022/05/25 07:37:12;;;;;;;1.90;0.97;;;;;;;16.67;53.20;98157.34;5053847;28;20189;-69
2022/05/25 07:39:48;;;;;;;1.63;0.70;;;;;;;16.95;54.58;98162.41;5055805;28;20205;-69
2022/05/25 07:42:15;;;;;;;2.30;0.93;;;;;;;17.16;53.15;98162.31;5056347;28;20185;-70
2022/05/25 07:44:50;;;;;;;1.67;0.90;;;;;;;16.99;54.75;98164.31;5038176;28;20288;-69
2022/05/25 07:47:16;;;;;;;4.27;0.97;;;;;;;17.01;53.53;98161.41;5038086;28;20192;-70
2022/05/25 07:49:42;;;;;;;2.10;0.90;;;;;;;16.72;55.38;98160.88;5055831;28;20185;-69
2022/05/25 07:52:09;;;;;;;1.90;0.87;;;;;;;16.82;53.75;98166.31;5055553;28;20210;-70
2022/05/25 07:54:36;;;;;;;0.97;0.90;;;;;;;16.84;55.23;98158.03;5055803;28;20201;-69
2022/05/25 07:57:03;;;;;;;2.73;0.97;;;;;;;16.65;54.43;98162.94;5055658;28;20205;-69
2022/05/25 07:59:30;;;;;;;1.63;1.00;;;;;;;16.51;56.18;98169.00;5056119;28;20226;-68
2022/05/25 08:07:33;;;;;;;2.10;1.10;;;;;;;16.76;53.60;98172.72;5040659;28;20228;-70
2022/05/25 08:10:08;;;;;;;1.70;0.80;;;;;;;16.88;54.05;98170.66;5055343;28;20237;-70
2022/05/25 08:12:37;;;;;;;1.53;1.00;;;;;;;17.06;53.63;98180.22;5055817;28;20190;-70
2022/05/25 08:15:04;;;;;;;3.30;0.87;;;;;;;17.12;53.43;98177.34;5055106;28;20722;-69
2022/05/25 08:17:31;;;;;;;2.07;1.10;;;;;;;17.02;53.58;98168.38;5055444;28;20229;-70
2022/05/25 08:19:57;;;;;;;2.27;1.27;;;;;;;17.09;53.41;98172.47;5055736;28;20229;-70
2022/05/25 08:22:24;;;;;;;1.60;0.90;;;;;;;17.02;50.48;98169.19;5054986;28;20664;-69
2022/05/25 08:24:50;;;;;;;3.53;0.97;;;;;;;17.02;50.25;98174.56;5055269;28;20211;-69
2022/05/25 08:27:17;;;;;;;1.57;0.80;;;;;;;17.06;50.46;98167.59;5055073;28;20244;-70
2022/05/25 08:29:44;;;;;;;1.77;1.03;;;;;;;17.20;50.63;98168.75;5055275;28;20204;-70
2022/05/25 08:32:10;;;;;;;1.93;0.70;;;;;;;17.34;49.75;98169.97;5055234;28;20231;-69
2022/05/25 08:34:37;;;;;;;1.53;1.00;;;;;;;17.61;50.56;98170.69;5055176;28;20213;-68
2022/05/25 08:37:04;;;;;;;2.97;0.90;;;;;;;17.88;50.65;98175.94;5055150;28;20216;-69
2022/05/25 08:39:30;;;;;;;2.97;0.90;;;;;;;18.01;48.90;98164.69;5054650;28;20228;-68
2022/05/25 08:42:00;;;;;;;1.77;0.77;;;;;;;18.68;49.30;98157.34;5055019;28;20212;-69
2022/05/25 08:44:27;;;;;;;1.53;0.90;;;;;;;18.41;48.05;98152.19;5046684;28;20278;-68
2022/05/25 08:46:57;;;;;;;4.20;1.37;;;;;;;18.10;48.30;98160.41;5075347;28;20200;-69
2022/05/25 08:49:25;;;;;;;2.87;1.07;;;;;;;17.82;49.65;98158.94;5073450;28;20323;-68
2022/05/25 08:51:55;;;;;;;5.77;1.43;;;;;;;17.64;50.32;98170.16;5074779;28;20215;-70
2022/05/25 08:54:24;;;;;;;1.40;0.80;;;;;;;17.80;52.81;98158.41;5074638;28;20263;-70
2022/05/25 08:56:59;;;;;;;2.97;1.17;;;;;;;17.82;51.01;98168.91;5074394;28;20663;-69
2022/05/25 08:59:27;;;;;;;1.57;0.80;;;;;;;17.58;50.51;98167.69;5074294;28;20718;-69
2022/05/25 09:01:59;;;;;;;1.07;0.80;;;;;;;17.39;49.96;98156.59;5074729;28;20200;-70
2022/05/25 09:04:50;;;;;;;3.13;1.00;;;;;;;17.18;50.33;98170.91;5074583;28;20569;-70
2022/05/25 09:07:29;;;;;;;2.53;0.90;;;;;;;17.17;50.81;98172.00;5074391;28;20197;-70
2022/05/25 09:09:55;;;;;;;2.53;1.07;;;;;;;17.13;52.21;98168.19;5074146;28;20185;-71
2022/05/25 09:12:39;;;;;;;3.43;1.20;;;;;;;17.40;50.16;98174.31;5074195;28;20208;-70
2022/05/25 09:15:11;;;;;;;2.33;0.90;;;;;;;17.25;49.29;98171.50;5074321;28;20258;-70
2022/05/25 09:18:13;;;;;;;4.23;1.20;;;;;;;17.54;48.45;98170.09;5074251;28;20233;-70
2022/05/25 09:20:44;;;;;;;1.30;0.90;;;;;;;17.77;48.30;98163.50;5041870;28;20686;-70
2022/05/25 09:23:12;;;;;;;4.83;1.10;;;;;;;18.01;47.67;98159.31;5073651;28;20207;-70
2022/05/25 09:25:40;;;;;;;1.30;0.90;;;;;;;18.26;48.57;98162.06;5056257;28;20208;-70
2022/05/25 09:28:15;;;;;;;1.40;0.80;;;;;;;17.99;47.19;98169.50;5073628;28;20230;-70
2022/05/25 09:30:46;;;;;;;2.23;0.90;;;;;;;17.93;47.86;98176.78;5073982;28;20215;-70
2022/05/25 09:33:25;;;;;;;1.63;1.00;;;;;;;18.26;48.89;98173.66;5074047;28;20195;-70
2022/05/25 09:35:58;;;;;;;2.10;0.70;;;;;;;18.42;46.34;98175.31;5056678;28;20188;-70
2022/05/25 09:38:42;;;;;;;1.10;0.90;;;;;;;18.01;46.01;98184.31;5055684;28;20233;-70
2022/05/25 09:41:11;;;;;;;1.73;0.60;;;;;;;17.70;46.45;98185.28;5073860;28;20239;-69
2022/05/25 09:43:40;;;;;;;2.23;0.73;;;;;;;17.77;47.43;98182.31;5073482;28;20639;-70
2022/05/25 09:46:11;;;;;;;2.40;0.80;;;;;;;17.81;46.80;98191.47;5073770;28;20211;-70
2022/05/25 09:49:03;;;;;;;3.10;1.00;;;;;;;18.05;47.40;98188.09;5055504;28;20232;-70
2022/05/25 09:51:45;;;;;;;1.03;0.83;;;;;;;18.31;48.41;98186.31;5064766;28;20729;-70
2022/05/25 09:54:16;;;;;;;3.03;0.83;;;;;;;18.11;45.27;98187.06;5073486;28;20192;-70
2022/05/25 09:56:52;;;;;;;2.10;0.80;;;;;;;18.31;47.33;98180.91;5073548;28;20549;-70
2022/05/25 09:59:26;;;;;;;2.20;0.80;;;;;;;18.82;44.18;98166.53;5073209;28;20231;-70
2022/05/25 10:01:54;;;;;;;3.90;1.00;;;;;;;19.08;45.44;98168.94;5073510;28;20188;-71
2022/05/25 10:04:51;;;;;;;2.57;0.80;;;;;;;19.51;43.26;98171.06;5073582;28;20205;-70
2022/05/25 10:07:21;;;;;;;1.27;0.80;;;;;;;19.12;44.69;98164.63;5073248;28;20647;-70
2022/05/25 10:09:51;;;;;;;2.07;0.80;;;;;;;19.46;45.17;98162.97;5073310;28;20196;-70
2022/05/25 10:12:26;;;;;;;0.70;0.70;;;;;;;19.59;43.34;98167.81;5072841;28;20216;-70
2022/05/25 10:15:07;;;;;;;2.40;0.97;;;;;;;19.75;42.77;98171.28;5073202;28;20187;-70
2022/05/25 10:17:36;;;;;;;1.40;0.80;;;;;;;20.18;41.22;98164.41;5073244;28;20228;-70
2022/05/25 10:20:05;;;;;;;1.30;0.83;;;;;;;20.29;42.15;98166.78;5073068;28;20563;-68
2022/05/25 10:22:35;;;;;;;4.63;1.10;;;;;;;20.47;42.64;98171.53;5072508;28;20204;-69
2022/05/25 10:25:13;;;;;;;2.47;1.00;;;;;;;20.59;42.99;98168.47;5073058;28;20367;-68
2022/05/25 10:27:45;;;;;;;4.77;2.37;;;;;;;19.59;43.51;98178.59;5072600;28;20703;-69
2022/05/25 10:39:59;;;;;;;2.43;1.20;;;;;;;19.21;41.58;98168.41;5052793;28;20220;-70
2022/05/25 10:42:50;;;;;;;7.13;5.10;;;;;;;19.19;43.86;98173.22;5047213;28;20205;-70
2022/05/25 10:45:34;;;;;;;4.47;1.80;;;;;;;19.22;43.13;98177.28;5053032;28;20239;-69
2022/05/25 10:48:25;;;;;;;19.53;17.23;;;;;;;18.87;43.21;98180.00;5052409;28;20719;-70
2022/05/25 10:51:02;;;;;;;3.30;3.00;;;;;;;18.51;43.29;98179.13;5007871;28;20228;-69
2022/05/25 10:53:35;;;;;;;6.63;5.77;;;;;;;18.61;43.58;98171.09;5035104;28;20195;-70
2022/05/25 10:56:31;;;;;;;3.30;1.33;;;;;;;19.13;43.72;98171.63;5052811;28;20190;-69
2022/05/25 10:59:03;;;;;;;1.60;0.73;;;;;;;19.67;43.21;98177.22;5034658;28;20308;-70
2022/05/25 11:01:56;;;;;;;14.60;12.67;;;;;;;20.13;42.01;98169.81;5052452;28;20664;-71
2022/05/25 11:04:56;;;;;;;9.83;8.83;;;;;;;20.67;40.71;98176.78;5029032;28;20208;-70
2022/05/25 11:07:38;;;;;;;4.63;1.30;;;;;;;20.83;38.69;98172.09;5052228;28;20201;-72
2022/05/25 11:10:39;;;;;;;3.47;2.57;;;;;;;19.97;40.76;98181.72;5052729;28;20205;-70
2022/05/25 11:13:33;;;;;;;2.23;1.23;;;;;;;19.46;41.14;98176.47;5055375;28;20193;-69
2022/05/25 11:16:20;;;;;;;4.30;1.00;;;;;;;19.22;43.00;98179.97;5056603;28;20204;-70
2022/05/25 11:19:08;;;;;;;1.97;0.67;;;;;;;19.20;42.22;98174.88;5055884;28;20684;-70
2022/05/25 11:21:46;;;;;;;3.60;0.80;;;;;;;19.08;44.04;98173.50;5056663;28;20232;-69
2022/05/25 11:24:15;;;;;;;2.00;0.90;;;;;;;19.03;42.67;98176.22;5056469;28;20193;-69
2022/05/25 11:26:52;;;;;;;2.27;0.90;;;;;;;19.29;41.63;98170.59;5056277;28;20347;-69
2022/05/25 11:29:46;;;;;;;2.27;1.00;;;;;;;19.15;42.36;98176.75;5056196;28;20228;-69
2022/05/25 11:32:42;;;;;;;1.20;0.90;;;;;;;19.23;44.58;98179.72;5056923;28;20190;-69
2022/05/25 11:35:28;;;;;;;1.27;0.90;;;;;;;19.26;46.24;98178.38;5031275;28;20216;-69
2022/05/25 11:38:00;;;;;;;9.60;7.73;;;;;;;19.16;43.24;98176.50;5055903;28;20264;-69
2022/05/25 11:40:35;;;;;;;8.10;5.03;;;;;;;19.33;42.50;98174.34;5055967;28;20235;-69
2022/05/25 11:43:39;;;;;;;4.43;3.93;;;;;;;19.08;41.12;98174.34;5056046;28;20239;-68
2022/05/25 11:46:23;;;;;;;3.17;1.30;;;;;;;19.44;42.71;98169.72;5055575;28;20189;-69
2022/05/25 11:49:08;;;;;;;8.27;6.17;;;;;;;19.45;42.48;98171.38;5055272;28;20248;-69
2022/05/25 11:51:56;;;;;;;1.60;0.80;;;;;;;19.90;42.91;98167.72;5056306;28;20190;-69
2022/05/25 11:54:26;;;;;;;4.70;4.30;;;;;;;20.10;42.07;98171.19;5055628;28;20197;-70
2022/05/25 11:57:17;;;;;;;3.10;2.27;;;;;;;19.46;40.34;98170.28;5055563;28;20212;-69
2022/05/25 11:59:57;;;;;;;1.70;1.60;;;;;;;19.54;41.11;98175.13;5055711;28;20209;-68
2022/05/25 12:02:43;;;;;;;15.13;13.33;;;;;;;19.73;42.58;98176.94;5055309;28;20269;-68
2022/05/25 12:05:18;;;;;;;6.00;3.10;;;;;;;19.95;40.45;98171.22;5024213;28;20217;-68
2022/05/25 12:08:16;;;;;;;3.67;1.67;;;;;;;20.02;43.16;98171.72;5056121;28;20263;-68
2022/05/25 12:11:06;;;;;;;3.30;1.40;;;;;;;19.88;42.62;98172.56;5055138;28;20211;-68
2022/05/25 12:13:43;;;;;;;2.00;1.23;;;;;;;20.17;40.26;98168.97;5055157;28;20661;-68
2022/05/25 12:16:22;;;;;;;1.90;0.90;;;;;;;20.33;40.75;98162.44;5055138;28;20200;-69
2022/05/25 12:19:03;;;;;;;1.63;1.00;;;;;;;20.57;39.07;98157.16;5055504;28;20233;-69
2022/05/25 12:21:47;;;;;;;1.23;0.90;;;;;;;20.67;40.35;98162.50;5055223;28;20555;-69
2022/05/25 12:24:25;;;;;;;3.80;1.00;;;;;;;20.21;38.64;98161.16;5053948;28;20217;-70
2022/05/25 12:26:52;;;;;;;3.00;1.30;;;;;;;19.94;38.91;98166.09;5055117;28;20193;-69